Time;durP1;ratioP1;P1;durP2;ratioP2;P2;SDS_P1;SDS_P2;PMS_P1;PMS_P2;Temp;Humidity;BMP_temperature;BMP_pressure;BME280_temperature;BME280_humidity;BME280_pressure;Samples;Min_cycle;Max_cycle;Signal;HPM_P1;HPM_P2
2021/11/04 00:00:28;;;;;;;65.63;38.22;;;;;;;10.26;100.00;97217.44;4995960;28;20166;-56
2021/11/04 00:02:55;;;;;;;62.85;37.15;;;;;;;10.25;100.00;97202.97;4990153;28;20038;-58
2021/11/04 00:05:20;;;;;;;67.60;37.95;;;;;;;10.22;100.00;97209.06;4987710;28;20030;-58
2021/11/04 00:07:51;;;;;;;71.88;41.65;;;;;;;10.22;100.00;97209.06;4988589;28;20489;-57
2021/11/04 00:10:19;;;;;;;70.32;43.80;;;;;;;10.21;100.00;97194.56;4988701;28;20049;-57
2021/11/04 00:12:45;;;;;;;78.60;44.03;;;;;;;10.14;100.00;97195.69;4994583;28;20041;-55
2021/11/04 00:15:10;;;;;;;71.78;43.67;;;;;;;10.16;100.00;97183.69;4990128;28;20030;-56
2021/11/04 00:17:36;;;;;;;77.68;44.05;;;;;;;10.14;100.00;97172.66;4987435;28;20061;-59
2021/11/04 00:20:07;;;;;;;84.88;44.95;;;;;;;10.15;100.00;97189.69;4996294;28;20031;-58
2021/11/04 00:22:34;;;;;;;70.85;42.25;;;;;;;10.12;100.00;97189.78;4988039;28;20033;-57
2021/11/04 00:24:59;;;;;;;83.10;44.90;;;;;;;10.15;100.00;97194.81;4990055;28;20023;-58
2021/11/04 00:27:25;;;;;;;71.88;41.65;;;;;;;10.15;100.00;97204.19;4989427;28;20041;-58
2021/11/04 00:29:50;;;;;;;86.35;47.33;;;;;;;10.14;100.00;97207.66;5002555;28;20041;-56
2021/11/04 00:32:16;;;;;;;80.43;44.53;;;;;;;10.13;100.00;97211.09;4988755;28;20030;-54
2021/11/04 00:34:41;;;;;;;74.05;42.60;;;;;;;10.12;100.00;97220.50;4992061;28;20501;-55
2021/11/04 00:37:07;;;;;;;82.50;45.65;;;;;;;10.07;100.00;97212.19;4992931;28;20038;-59
2021/11/04 00:39:32;;;;;;;88.53;48.30;;;;;;;10.08;100.00;97201.03;4994766;28;20096;-53
2021/11/04 00:41:58;;;;;;;84.40;45.47;;;;;;;10.05;100.00;97189.22;4988306;28;20050;-55
2021/11/04 00:44:23;;;;;;;82.05;46.53;;;;;;;10.08;100.00;97189.09;4985614;28;20440;-56
2021/11/04 00:46:49;;;;;;;76.82;42.67;;;;;;;10.08;100.00;97196.75;4993747;28;20033;-58
2021/11/04 00:49:15;;;;;;;74.55;42.28;;;;;;;10.12;100.00;97183.81;4992176;28;20033;-56
2021/11/04 00:51:40;;;;;;;69.40;40.75;;;;;;;10.12;100.00;97184.66;4994775;28;20045;-55
2021/11/04 00:54:06;;;;;;;84.30;45.22;;;;;;;10.10;100.00;97173.63;4993134;28;20037;-56
2021/11/04 00:56:31;;;;;;;78.93;42.60;;;;;;;10.16;100.00;97167.47;4996933;28;20026;-56
2021/11/04 00:58:56;;;;;;;74.53;43.20;;;;;;;10.13;100.00;97159.91;4999697;28;20030;-55
2021/11/04 01:01:23;;;;;;;77.15;41.60;;;;;;;10.12;100.00;97158.22;4988375;28;20037;-59
2021/11/04 01:03:50;;;;;;;80.13;43.47;;;;;;;10.16;100.00;97176.00;4988464;28;20034;-54
2021/11/04 01:06:17;;;;;;;71.63;39.80;;;;;;;10.15;100.00;97184.56;4990390;28;20472;-57
2021/11/04 01:08:42;;;;;;;70.90;41.47;;;;;;;10.17;100.00;97176.81;4997824;28;20034;-56
2021/11/04 01:11:08;;;;;;;68.43;39.67;;;;;;;10.22;100.00;97177.47;4985839;28;20804;-58
2021/11/04 01:13:35;;;;;;;63.90;38.97;;;;;;;10.24;100.00;97173.94;4987149;28;20121;-59
2021/11/04 01:16:01;;;;;;;61.17;37.58;;;;;;;10.29;100.00;97158.41;4997637;28;20038;-58
2021/11/04 01:18:26;;;;;;;61.13;37.63;;;;;;;10.21;100.00;97137.41;4988254;28;20031;-56
2021/11/04 01:20:53;;;;;;;62.17;36.78;;;;;;;10.23;100.00;97135.59;4991127;28;20038;-57
2021/11/04 01:23:18;;;;;;;62.22;38.80;;;;;;;10.19;100.00;97129.75;4987519;28;20026;-59
2021/11/04 01:25:44;;;;;;;58.95;38.17;;;;;;;10.23;100.00;97138.97;4991849;28;20045;-58
2021/11/04 01:28:09;;;;;;;62.58;39.03;;;;;;;10.21;100.00;97124.59;4993163;28;20037;-57
2021/11/04 01:30:38;;;;;;;60.20;38.75;;;;;;;10.26;100.00;97107.31;4992215;28;20508;-58
2021/11/04 01:33:05;;;;;;;62.17;38.63;;;;;;;10.22;100.00;97103.22;4986072;28;20022;-58
2021/11/04 01:35:31;;;;;;;63.28;39.50;;;;;;;10.23;100.00;97104.84;4990705;28;20457;-59
2021/11/04 01:38:01;;;;;;;56.25;35.95;;;;;;;10.25;100.00;97109.03;4992215;28;20026;-56
2021/11/04 01:40:27;;;;;;;66.22;38.97;;;;;;;10.21;100.00;97110.06;4985768;28;20036;-57
2021/11/04 01:42:53;;;;;;;54.88;35.85;;;;;;;10.14;100.00;97100.09;4986581;28;20054;-59
2021/11/04 01:45:18;;;;;;;56.25;37.60;;;;;;;10.12;100.00;97096.75;4986316;28;20030;-59
2021/11/04 01:47:46;;;;;;;54.85;34.38;;;;;;;10.10;100.00;97084.84;4981461;28;20458;-59
2021/11/04 01:50:13;;;;;;;59.92;35.35;;;;;;;10.16;100.00;97080.41;4979023;28;20042;-59
2021/11/04 01:52:38;;;;;;;58.22;33.80;;;;;;;10.14;100.00;97089.88;4981987;28;20558;-58
2021/11/04 01:55:04;;;;;;;55.38;34.20;;;;;;;10.05;100.00;97102.16;4988961;28;20121;-58
2021/11/04 01:57:30;;;;;;;53.85;34.63;;;;;;;10.07;100.00;97094.41;4981493;28;20077;-59
2021/11/04 01:59:55;;;;;;;52.88;33.15;;;;;;;10.08;100.00;97088.38;4980061;28;20465;-57
2021/11/04 02:02:23;;;;;;;47.10;31.77;;;;;;;10.08;100.00;97078.13;4984774;28;20050;-57
2021/11/04 02:05:05;;;;;;;48.33;33.30;;;;;;;10.06;100.00;97072.25;4988629;28;20118;-55
2021/11/04 02:07:33;;;;;;;51.40;33.63;;;;;;;10.04;100.00;97064.63;4983024;28;20031;-55
2021/11/04 02:10:30;;;;;;;54.13;33.58;;;;;;;10.06;100.00;97077.34;4980389;28;20073;-57
2021/11/04 02:13:09;;;;;;;48.60;31.65;;;;;;;10.04;100.00;97084.28;4983462;28;20049;-55
2021/11/04 02:15:38;;;;;;;50.67;30.98;;;;;;;10.06;100.00;97067.94;4987836;28;20051;-57
2021/11/04 02:18:08;;;;;;;48.17;32.08;;;;;;;10.03;100.00;97065.53;4984023;28;20418;-57
2021/11/04 02:20:39;;;;;;;51.78;31.02;;;;;;;10.00;100.00;97052.88;4986139;28;20033;-57
2021/11/04 02:23:13;;;;;;;48.83;32.90;;;;;;;10.03;100.00;97044.22;4993221;28;20112;-53
2021/11/04 02:25:39;;;;;;;51.03;34.35;;;;;;;9.93;100.00;97055.75;4986769;28;20121;-57
2021/11/04 02:28:10;;;;;;;51.38;32.83;;;;;;;10.01;100.00;97053.69;4984530;28;20105;-59
2021/11/04 02:30:36;;;;;;;49.15;32.58;;;;;;;9.98;100.00;97041.84;4984764;28;20105;-54
2021/11/04 02:33:02;;;;;;;51.50;32.10;;;;;;;9.99;100.00;97043.50;4988916;28;20027;-57
2021/11/04 02:35:28;;;;;;;50.22;32.13;;;;;;;9.96;100.00;97030.84;4984751;28;20050;-58
2021/11/04 02:37:55;;;;;;;53.53;32.92;;;;;;;9.96;100.00;97033.41;4982636;28;20089;-55
2021/11/04 02:40:22;;;;;;;48.05;31.58;;;;;;;9.94;100.00;97035.19;4988841;28;20035;-57
2021/11/04 02:42:50;;;;;;;47.88;31.73;;;;;;;9.92;100.00;97036.16;4988275;28;20092;-56
2021/11/04 02:45:20;;;;;;;51.80;31.40;;;;;;;10.04;100.00;97027.97;4986886;28;20078;-59
2021/11/04 02:47:46;;;;;;;58.05;33.17;;;;;;;10.06;100.00;97027.00;4988399;28;20046;-58
2021/11/04 02:50:12;;;;;;;54.95;32.25;;;;;;;10.16;100.00;97024.06;4991754;28;20023;-57
2021/11/04 02:52:38;;;;;;;58.40;32.90;;;;;;;10.19;100.00;97014.53;4986863;28;20042;-57
2021/11/04 02:55:06;;;;;;;52.53;33.15;;;;;;;10.21;100.00;97010.19;4987169;28;20030;-57
2021/11/04 02:57:39;;;;;;;57.33;33.38;;;;;;;10.24;100.00;97015.16;4986181;28;20476;-57
2021/11/04 03:00:05;;;;;;;54.42;30.23;;;;;;;10.18;100.00;97007.75;4985124;28;20499;-56
2021/11/04 03:02:31;;;;;;;49.47;30.15;;;;;;;10.15;100.00;96997.63;4991828;28;20042;-55
2021/11/04 03:04:56;;;;;;;47.80;30.85;;;;;;;10.17;100.00;96979.66;4984471;28;20073;-57
2021/11/04 03:07:21;;;;;;;49.03;30.90;;;;;;;10.25;100.00;96975.00;4989358;28;20050;-59
2021/11/04 03:09:47;;;;;;;50.08;30.80;;;;;;;10.16;100.00;96954.94;4989722;28;20096;-56
2021/11/04 03:12:12;;;;;;;48.20;29.70;;;;;;;10.20;100.00;96956.44;4984427;28;20035;-53
2021/11/04 03:14:38;;;;;;;48.35;29.52;;;;;;;10.13;100.00;96937.13;4988715;28;20085;-55
2021/11/04 03:17:05;;;;;;;48.95;28.98;;;;;;;10.20;100.00;96921.44;4986245;28;20027;-55
2021/11/04 03:19:30;;;;;;;47.85;31.58;;;;;;;10.22;100.00;96914.53;4992069;28;20436;-54
2021/11/04 03:21:57;;;;;;;44.70;29.02;;;;;;;10.20;100.00;96906.06;4985796;28;20027;-53
2021/11/04 03:24:25;;;;;;;44.10;27.67;;;;;;;10.15;100.00;96891.78;4986768;28;20044;-52
2021/11/04 03:27:07;;;;;;;45.47;29.30;;;;;;;10.20;100.00;96888.16;4990255;28;20375;-55
2021/11/04 03:29:36;;;;;;;44.90;28.58;;;;;;;10.09;100.00;96868.13;4994546;28;20080;-57
2021/11/04 03:32:05;;;;;;;41.00;26.85;;;;;;;10.12;100.00;96846.66;4989546;28;20032;-53
2021/11/04 03:34:32;;;;;;;42.78;27.75;;;;;;;10.12;100.00;96840.72;4987786;28;20522;-55
2021/11/04 03:37:01;;;;;;;39.55;26.45;;;;;;;10.12;100.00;96854.34;4987930;28;20444;-57
2021/11/04 03:39:27;;;;;;;46.60;26.75;;;;;;;10.09;100.00;96850.22;4989960;28;20489;-54
2021/11/04 03:41:56;;;;;;;45.80;28.40;;;;;;;10.13;100.00;96855.19;4988174;28;20050;-56
2021/11/04 03:44:23;;;;;;;45.17;27.85;;;;;;;10.15;100.00;96846.53;4987141;28;20208;-55
2021/11/04 03:46:51;;;;;;;40.05;27.17;;;;;;;10.13;100.00;96852.63;4991602;28;20034;-58
2021/11/04 03:49:18;;;;;;;47.47;28.50;;;;;;;10.10;100.00;96867.22;4989884;28;20034;-56
2021/11/04 03:51:46;;;;;;;45.10;29.15;;;;;;;10.20;100.00;96871.94;4990121;28;20057;-55
2021/11/04 03:54:12;;;;;;;43.63;26.88;;;;;;;10.12;100.00;96871.44;4989165;28;20572;-55
2021/11/04 03:56:41;;;;;;;42.88;27.30;;;;;;;10.14;100.00;96872.22;4989939;28;20041;-55
2021/11/04 03:59:07;;;;;;;38.08;24.00;;;;;;;10.16;100.00;96863.56;4990052;28;20034;-56
2021/11/04 04:01:34;;;;;;;35.55;24.67;;;;;;;10.23;100.00;96854.69;4988495;28;20448;-55
2021/11/04 04:04:02;;;;;;;36.72;24.00;;;;;;;10.24;100.00;96863.22;4988782;28;20523;-53
2021/11/04 04:06:27;;;;;;;37.45;25.42;;;;;;;10.18;100.00;96850.72;4987011;28;20117;-54
2021/11/04 04:08:54;;;;;;;33.95;23.95;;;;;;;10.20;100.00;96841.22;4989553;28;20145;-56
2021/11/04 04:11:22;;;;;;;37.35;23.75;;;;;;;10.13;100.00;96839.81;4988629;28;20077;-59
2021/11/04 04:13:48;;;;;;;39.53;25.55;;;;;;;10.13;100.00;96835.53;4989544;28;20109;-53
2021/11/04 04:16:13;;;;;;;37.83;23.30;;;;;;;10.09;100.00;96851.94;4988801;28;20034;-55
2021/11/04 04:18:38;;;;;;;38.38;23.60;;;;;;;10.10;100.00;96856.13;4992649;28;20038;-56
2021/11/04 04:21:04;;;;;;;35.33;23.98;;;;;;;10.10;100.00;96856.13;4990139;28;20026;-55
2021/11/04 04:23:29;;;;;;;37.33;23.45;;;;;;;10.20;100.00;96838.66;4985858;28;20431;-56
2021/11/04 04:25:55;;;;;;;30.85;22.27;;;;;;;10.19;100.00;96831.88;4989416;28;20062;-53
2021/11/04 04:28:20;;;;;;;31.90;21.95;;;;;;;10.21;100.00;96832.63;4987413;28;20030;-54
2021/11/04 04:30:46;;;;;;;32.03;21.60;;;;;;;10.22;100.00;96829.19;4980073;28;20066;-57
2021/11/04 04:33:12;;;;;;;28.30;19.42;;;;;;;10.17;100.00;96814.03;4982377;28;20042;-57
2021/11/04 04:35:37;;;;;;;34.17;20.95;;;;;;;10.17;100.00;96810.63;4988153;28;20036;-53
2021/11/04 04:38:03;;;;;;;26.00;18.85;;;;;;;10.15;100.00;96791.91;4986782;28;20040;-54
2021/11/04 04:40:28;;;;;;;30.48;20.13;;;;;;;10.18;100.00;96789.25;4984740;28;20035;-54
2021/11/04 04:42:53;;;;;;;32.85;18.80;;;;;;;10.17;100.00;96785.88;4985061;28;20130;-56
2021/11/04 04:45:19;;;;;;;28.02;20.35;;;;;;;10.19;100.00;96788.34;4983537;28;20289;-53
2021/11/04 04:47:44;;;;;;;25.80;18.42;;;;;;;10.21;100.00;96786.53;4985454;28;20435;-51
2021/11/04 04:50:11;;;;;;;22.38;16.02;;;;;;;10.17;100.00;96764.53;4989774;28;20037;-52
2021/11/04 04:52:37;;;;;;;18.77;13.63;;;;;;;10.28;100.00;96749.50;4984317;28;20045;-56
2021/11/04 04:55:04;;;;;;;17.20;12.77;;;;;;;10.37;100.00;96736.25;4990595;28;20034;-51
2021/11/04 04:57:29;;;;;;;20.83;13.70;;;;;;;10.35;100.00;96749.16;4986473;28;20555;-55
2021/11/04 04:59:57;;;;;;;19.27;13.73;;;;;;;10.51;100.00;96736.41;4989099;28;20022;-51
2021/11/04 05:02:26;;;;;;;17.45;14.20;;;;;;;10.47;100.00;96737.47;4996134;28;20041;-56
2021/11/04 05:04:53;;;;;;;22.38;15.27;;;;;;;10.54;100.00;96739.66;4986643;28;20062;-56
2021/11/04 05:07:20;;;;;;;24.73;17.70;;;;;;;10.52;100.00;96740.63;4983485;28;20037;-55
2021/11/04 05:09:46;;;;;;;20.33;14.88;;;;;;;10.53;100.00;96729.47;4989704;28;20031;-51
2021/11/04 05:12:11;;;;;;;22.00;17.27;;;;;;;10.58;100.00;96732.63;4990648;28;20037;-54
2021/11/04 05:14:37;;;;;;;23.05;14.65;;;;;;;10.60;100.00;96730.84;4989004;28;20485;-56
2021/11/04 05:17:03;;;;;;;21.52;15.98;;;;;;;10.60;100.00;96718.03;4984999;28;20473;-52
2021/11/04 05:19:29;;;;;;;29.15;16.15;;;;;;;10.60;100.00;96710.34;4987320;28;20048;-52
2021/11/04 05:21:54;;;;;;;27.20;17.98;;;;;;;10.62;100.00;96717.94;4991925;28;20377;-51
2021/11/04 05:24:20;;;;;;;22.40;17.58;;;;;;;10.67;100.00;96727.06;4991489;28;20519;-54
2021/11/04 05:26:47;;;;;;;23.10;17.02;;;;;;;10.70;100.00;96720.94;4984202;28;20030;-53
2021/11/04 05:29:13;;;;;;;21.65;16.38;;;;;;;10.74;100.00;96710.47;4989810;28;20030;-55
2021/11/04 05:31:40;;;;;;;21.33;16.88;;;;;;;10.72;100.00;96696.91;4985467;28;20639;-53
2021/11/04 05:34:05;;;;;;;24.15;17.65;;;;;;;10.69;100.00;96711.63;4993239;28;20045;-56
2021/11/04 05:36:31;;;;;;;21.30;16.88;;;;;;;10.60;100.00;96735.13;4988594;28;20042;-54
2021/11/04 05:38:56;;;;;;;24.75;17.83;;;;;;;10.63;100.00;96756.31;4989005;28;20035;-55
2021/11/04 05:41:22;;;;;;;23.98;16.58;;;;;;;10.81;100.00;96759.69;4992843;28;20054;-55
2021/11/04 05:43:48;;;;;;;24.90;17.70;;;;;;;10.82;100.00;96761.34;4986650;28;20045;-53
2021/11/04 05:46:13;;;;;;;29.35;19.08;;;;;;;10.85;100.00;96790.22;4983595;28;20994;-55
2021/11/04 05:48:39;;;;;;;23.98;18.95;;;;;;;10.86;100.00;96780.81;4987924;28;20633;-58
2021/11/04 05:51:05;;;;;;;24.17;18.67;;;;;;;10.85;100.00;96791.97;4992984;28;20034;-56
2021/11/04 05:53:30;;;;;;;20.67;18.02;;;;;;;10.84;100.00;96792.84;4986064;28;20026;-55
2021/11/04 05:55:56;;;;;;;25.50;19.65;;;;;;;10.84;100.00;96796.25;4989674;28;20044;-56
2021/11/04 05:58:21;;;;;;;22.63;17.52;;;;;;;10.86;100.00;96802.13;4985814;28;20038;-55
2021/11/04 06:00:47;;;;;;;22.25;18.77;;;;;;;10.89;100.00;96802.00;4988211;28;20026;-54
2021/11/04 06:03:13;;;;;;;22.85;18.55;;;;;;;10.91;100.00;96817.28;4989369;28;20033;-54
2021/11/04 06:05:42;;;;;;;20.48;18.35;;;;;;;10.94;100.00;96825.66;4990300;28;20389;-56
2021/11/04 06:08:08;;;;;;;22.15;18.27;;;;;;;10.90;100.00;96829.28;4985807;28;20030;-54
2021/11/04 06:10:34;;;;;;;21.23;18.95;;;;;;;10.88;100.00;96854.16;4993092;28;20037;-55
2021/11/04 06:12:59;;;;;;;21.38;16.85;;;;;;;10.95;100.00;96847.81;4986150;28;20042;-56
2021/11/04 06:15:25;;;;;;;21.00;17.42;;;;;;;10.97;100.00;96838.34;4986115;28;20037;-58
2021/11/04 06:17:50;;;;;;;24.15;18.65;;;;;;;10.98;100.00;96846.84;4990285;28;20042;-56
2021/11/04 06:20:16;;;;;;;20.42;16.52;;;;;;;10.99;100.00;96846.75;4989941;28;20030;-56
2021/11/04 06:22:42;;;;;;;18.83;16.85;;;;;;;11.00;100.00;96856.13;4984324;28;20402;-59
2021/11/04 06:25:08;;;;;;;20.25;17.55;;;;;;;10.99;100.00;96845.94;4983420;28;20374;-59
2021/11/04 06:27:33;;;;;;;20.05;17.83;;;;;;;11.04;100.00;96843.13;4988260;28;20033;-59
2021/11/04 06:29:59;;;;;;;20.15;17.55;;;;;;;11.14;100.00;96844.34;4990174;28;20038;-58
2021/11/04 06:32:25;;;;;;;20.45;18.35;;;;;;;11.14;100.00;96845.19;4985701;28;20038;-57
2021/11/04 06:34:50;;;;;;;22.52;19.08;;;;;;;11.15;100.00;96840.88;4987162;28;20031;-58
2021/11/04 06:37:16;;;;;;;23.77;17.92;;;;;;;11.21;100.00;96836.28;4995503;28;20034;-58
2021/11/04 06:39:41;;;;;;;16.33;14.48;;;;;;;11.39;100.00;96857.59;4984977;28;20034;-57
2021/11/04 06:42:07;;;;;;;16.52;14.88;;;;;;;11.43;100.00;96859.09;4991979;28;20053;-56
2021/11/04 06:44:32;;;;;;;20.08;14.85;;;;;;;11.49;100.00;96852.84;4994499;28;20107;-59
2021/11/04 06:47:01;;;;;;;16.20;14.57;;;;;;;11.57;100.00;96861.81;4988714;28;20065;-54
2021/11/04 06:49:32;;;;;;;18.02;13.98;;;;;;;11.61;100.00;96858.19;4991003;28;20490;-56
2021/11/04 06:51:57;;;;;;;16.60;13.00;;;;;;;11.59;100.00;96851.44;4987993;28;20469;-56
2021/11/04 06:54:25;;;;;;;15.32;13.73;;;;;;;11.63;100.00;96861.47;4992786;28;20050;-60
2021/11/04 06:56:51;;;;;;;16.85;14.30;;;;;;;11.62;100.00;96852.16;4989023;28;20361;-58
2021/11/04 06:59:19;;;;;;;15.07;13.30;;;;;;;11.67;100.00;96846.78;4989133;28;20085;-58
2021/11/04 07:01:56;;;;;;;15.38;13.77;;;;;;;11.72;100.00;96875.63;4985494;28;20022;-59
2021/11/04 07:04:31;;;;;;;16.15;14.50;;;;;;;11.69;100.00;96865.47;4990443;28;20030;-59
2021/11/04 07:07:15;;;;;;;14.40;12.90;;;;;;;11.69;100.00;96868.03;5001227;28;20350;-58
2021/11/04 07:09:42;;;;;;;14.45;12.35;;;;;;;11.68;100.00;96884.34;4983612;28;20046;-59
2021/11/04 07:12:12;;;;;;;16.88;15.07;;;;;;;11.60;100.00;96879.63;4993384;28;20077;-59
2021/11/04 07:14:40;;;;;;;16.95;14.23;;;;;;;11.71;100.00;96891.91;4991384;28;20581;-60
2021/11/04 07:17:06;;;;;;;13.93;12.30;;;;;;;11.81;100.00;96868.28;4987093;28;20057;-60
2021/11/04 07:19:32;;;;;;;14.77;13.30;;;;;;;11.86;100.00;96897.13;4982311;28;20455;-59
2021/11/04 07:22:21;;;;;;;16.30;13.60;;;;;;;11.85;100.00;96899.75;4989507;28;20073;-59
2021/11/04 07:24:52;;;;;;;16.42;14.70;;;;;;;11.82;100.00;96911.03;4991613;28;20042;-59
2021/11/04 07:27:32;;;;;;;16.58;14.57;;;;;;;11.80;100.00;96917.94;4984721;28;20897;-59
2021/11/04 07:30:03;;;;;;;15.75;14.15;;;;;;;11.83;100.00;96930.66;4982078;28;20486;-58
2021/11/04 07:32:31;;;;;;;18.63;15.35;;;;;;;11.77;100.00;96948.94;4987090;28;20034;-58
2021/11/04 07:34:57;;;;;;;15.57;13.95;;;;;;;11.75;100.00;96949.94;4988079;28;20037;-57
2021/11/04 07:37:28;;;;;;;19.48;15.18;;;;;;;11.83;100.00;96945.22;4985026;28;20049;-57
2021/11/04 07:39:54;;;;;;;17.75;16.00;;;;;;;11.76;100.00;96949.84;4982490;28;20341;-57
2021/11/04 07:42:19;;;;;;;18.05;15.90;;;;;;;11.75;100.00;96953.28;4988443;28;20542;-57
2021/11/04 07:44:44;;;;;;;25.10;16.63;;;;;;;11.75;100.00;96958.44;4986454;28;20043;-55
2021/11/04 07:47:10;;;;;;;16.08;14.43;;;;;;;11.78;100.00;96963.44;4986932;28;20122;-54
2021/11/04 07:49:35;;;;;;;15.38;13.82;;;;;;;11.77;100.00;96977.16;4985506;28;20022;-56
2021/11/04 07:52:01;;;;;;;16.85;15.07;;;;;;;11.81;100.00;96998.38;4986550;28;20383;-57
2021/11/04 07:54:29;;;;;;;19.58;17.33;;;;;;;11.86;100.00;97004.97;4988137;28;20678;-55
2021/11/04 07:56:55;;;;;;;17.83;16.10;;;;;;;11.59;100.00;97013.97;4989834;28;20045;-58
2021/11/04 07:59:20;;;;;;;9.38;7.88;;;;;;;11.03;100.00;97031.25;4983571;28;20111;-55
2021/11/04 08:01:45;;;;;;;8.38;6.50;;;;;;;10.77;100.00;97052.97;4991663;28;20038;-58
2021/11/04 08:04:11;;;;;;;6.45;5.35;;;;;;;10.62;100.00;97043.38;4992587;28;20045;-58
2021/11/04 08:06:36;;;;;;;5.85;4.47;;;;;;;10.06;100.00;97044.91;4987296;28;20030;-57
2021/11/04 08:09:03;;;;;;;5.32;4.05;;;;;;;9.67;100.00;97022.72;4991672;28;20116;-59
2021/11/04 08:11:29;;;;;;;3.90;3.00;;;;;;;9.32;100.00;97048.00;4989748;28;20035;-58
2021/11/04 08:13:55;;;;;;;2.92;2.63;;;;;;;9.24;100.00;97047.47;4989290;28;20133;-54
2021/11/04 08:16:20;;;;;;;2.33;2.13;;;;;;;9.03;100.00;97025.28;4986956;28;20575;-58
2021/11/04 08:18:46;;;;;;;1.58;1.38;;;;;;;8.74;100.00;97012.78;4988088;28;20426;-58
2021/11/04 08:21:11;;;;;;;1.00;1.00;;;;;;;8.67;100.00;97042.81;4989322;28;20031;-57
2021/11/04 08:23:37;;;;;;;1.95;1.20;;;;;;;8.51;100.00;97049.38;4991705;28;20030;-58
2021/11/04 08:26:05;;;;;;;2.03;1.50;;;;;;;8.51;100.00;97054.50;4982385;28;20030;-58
2021/11/04 08:28:30;;;;;;;2.40;0.90;;;;;;;8.36;100.00;97063.53;4992109;28;20031;-57
2021/11/04 08:30:55;;;;;;;0.80;0.80;;;;;;;8.43;100.00;97079.47;4992724;28;20026;-57
2021/11/04 08:33:21;;;;;;;0.73;0.73;;;;;;;8.34;100.00;97079.78;4990288;28;20026;-58
2021/11/04 08:35:47;;;;;;;1.13;0.80;;;;;;;8.32;100.00;97087.50;4988600;28;20061;-58
2021/11/04 08:38:13;;;;;;;1.30;0.80;;;;;;;8.39;100.00;97099.19;4988888;28;20026;-58
2021/11/04 08:40:38;;;;;;;0.80;0.80;;;;;;;8.32;100.00;97104.56;4990511;28;20041;-57
2021/11/04 08:43:04;;;;;;;0.60;0.60;;;;;;;8.26;100.00;97121.72;4992364;28;20047;-56
2021/11/04 08:45:29;;;;;;;0.50;0.50;;;;;;;8.24;100.00;97107.31;4984477;28;20035;-54
2021/11/04 08:47:54;;;;;;;1.07;0.70;;;;;;;8.21;100.00;97138.91;4990858;28;20041;-58
2021/11/04 08:50:20;;;;;;;0.90;0.67;;;;;;;8.25;100.00;97134.53;4985000;28;20080;-57
2021/11/04 08:52:47;;;;;;;0.50;0.50;;;;;;;8.17;100.00;97137.34;4988450;28;20476;-57
2021/11/04 08:55:13;;;;;;;0.93;0.63;;;;;;;8.07;100.00;97125.75;4986039;28;20030;-58
2021/11/04 08:57:39;;;;;;;2.03;0.67;;;;;;;8.05;100.00;97147.97;4992184;28;20093;-58
2021/11/04 09:00:07;;;;;;;0.57;0.57;;;;;;;8.10;100.00;97158.88;4990819;28;20133;-56
2021/11/04 09:02:33;;;;;;;0.50;0.50;;;;;;;8.05;100.00;97150.50;4991002;28;20165;-57
2021/11/04 09:05:01;;;;;;;0.50;0.50;;;;;;;8.05;100.00;97147.13;4990507;28;20035;-58
2021/11/04 09:07:27;;;;;;;0.40;0.40;;;;;;;8.07;100.00;97142.78;4990460;28;20034;-53
2021/11/04 09:09:52;;;;;;;0.50;0.50;;;;;;;8.05;100.00;97147.13;5001802;28;20087;-55
2021/11/04 09:12:18;;;;;;;2.00;0.50;;;;;;;8.06;100.00;97167.47;4987014;28;20043;-54
2021/11/04 09:14:44;;;;;;;0.60;0.60;;;;;;;8.01;100.00;97174.47;4992936;28;20105;-53
2021/11/04 09:17:12;;;;;;;0.40;0.40;;;;;;;8.07;100.00;97170.88;4987155;28;20031;-52
2021/11/04 09:19:37;;;;;;;0.50;0.50;;;;;;;8.09;100.00;97187.81;4991751;28;20026;-54
2021/11/04 09:22:03;;;;;;;0.50;0.50;;;;;;;8.06;100.00;97200.66;4986070;28;20113;-54
2021/11/04 09:24:30;;;;;;;0.40;0.40;;;;;;;8.12;100.00;97213.22;4990650;28;20031;-54
2021/11/04 09:26:57;;;;;;;0.57;0.40;;;;;;;8.24;100.00;97220.50;4989132;28;20034;-57
2021/11/04 09:29:23;;;;;;;1.17;0.50;;;;;;;8.12;100.00;97218.34;4987072;28;20041;-57
2021/11/04 09:31:49;;;;;;;0.60;0.60;;;;;;;8.15;100.00;97238.66;4989698;28;20042;-58
2021/11/04 09:34:15;;;;;;;1.40;0.40;;;;;;;8.21;100.00;97227.41;4990496;28;20030;-56
2021/11/04 09:36:41;;;;;;;0.70;0.70;;;;;;;8.34;100.00;97223.63;4987171;28;20034;-57
2021/11/04 09:39:06;;;;;;;1.23;0.57;;;;;;;8.55;100.00;97245.91;4995125;28;20031;-58
2021/11/04 09:41:32;;;;;;;0.70;0.70;;;;;;;8.56;100.00;97257.78;4983339;28;20082;-56
2021/11/04 09:44:00;;;;;;;0.60;0.60;;;;;;;8.75;100.00;97236.72;4986249;28;20042;-59
2021/11/04 09:46:25;;;;;;;1.10;0.70;;;;;;;8.79;100.00;97245.94;4990899;28;20030;-59
2021/11/04 09:48:52;;;;;;;0.87;0.87;;;;;;;8.78;100.00;97250.25;4995752;28;20423;-57
2021/11/04 09:51:19;;;;;;;0.77;0.77;;;;;;;8.82;100.00;97267.13;4981673;28;20034;-55
2021/11/04 09:53:47;;;;;;;1.00;0.63;;;;;;;8.80;100.00;97257.84;4989092;28;20045;-55
2021/11/04 09:56:13;;;;;;;0.90;0.90;;;;;;;8.82;100.00;97281.63;4997204;28;20058;-54
2021/11/04 09:58:38;;;;;;;0.70;0.70;;;;;;;8.91;100.00;97269.34;4984512;28;20042;-58
2021/11/04 10:01:24;;;;;;;0.40;0.40;;;;;;;9.02;100.00;97281.78;4989243;28;20481;-58
2021/11/04 10:03:50;;;;;;;0.80;0.73;;;;;;;9.29;100.00;97283.38;4980949;28;20044;-58
2021/11/04 10:06:26;;;;;;;0.52;0.52;;;;;;;9.41;100.00;97282.09;4984087;28;20058;-57
2021/11/04 10:08:54;;;;;;;0.50;0.50;;;;;;;9.41;100.00;97298.28;4984286;28;20539;-58
2021/11/04 10:11:26;;;;;;;0.70;0.52;;;;;;;9.54;100.00;97296.13;4984450;28;20435;-58
2021/11/04 10:13:58;;;;;;;0.55;0.55;;;;;;;9.59;100.00;97299.31;4979484;28;20085;-58
2021/11/04 10:16:27;;;;;;;0.50;0.50;;;;;;;9.50;100.00;97317.59;4986296;28;20116;-57
2021/11/04 10:18:52;;;;;;;2.60;0.68;;;;;;;9.63;100.00;97313.72;4983221;28;20096;-58
2021/11/04 10:21:23;;;;;;;0.40;0.40;;;;;;;9.70;100.00;97322.81;4983748;28;20035;-57
2021/11/04 10:23:49;;;;;;;0.40;0.40;;;;;;;9.59;100.00;97333.44;4987778;28;20056;-57
2021/11/04 10:26:20;;;;;;;0.68;0.50;;;;;;;9.63;100.00;97339.31;4983932;28;20041;-56
2021/11/04 10:28:49;;;;;;;0.52;0.52;;;;;;;9.71;100.00;97350.09;4981687;28;20041;-57
2021/11/04 10:31:20;;;;;;;0.60;0.60;;;;;;;9.79;100.00;97357.47;4983418;28;20583;-57
2021/11/04 10:33:48;;;;;;;0.60;0.60;;;;;;;9.85;100.00;97358.09;4987103;28;20370;-55
2021/11/04 10:36:23;;;;;;;0.50;0.50;;;;;;;9.87;100.00;97360.59;4986109;28;20037;-56
2021/11/04 10:38:53;;;;;;;0.52;0.50;;;;;;;9.95;100.00;97366.25;4982361;28;20075;-58
2021/11/04 10:41:25;;;;;;;0.50;0.50;;;;;;;10.06;100.00;97364.97;4985787;28;20489;-58
2021/11/04 10:43:56;;;;;;;0.50;0.50;;;;;;;10.11;100.00;97375.03;4988899;28;20092;-56
2021/11/04 10:46:24;;;;;;;0.60;0.60;;;;;;;10.05;100.00;97360.78;4987729;28;20030;-56
2021/11/04 10:49:03;;;;;;;0.60;0.60;;;;;;;10.08;100.00;97376.00;4984556;28;20038;-56
2021/11/04 10:51:30;;;;;;;0.47;0.47;;;;;;;9.98;100.00;97376.38;4987848;28;20125;-57
2021/11/04 10:54:14;;;;;;;0.47;0.45;;;;;;;10.02;100.00;97380.50;4986547;28;20035;-55
2021/11/04 10:56:41;;;;;;;0.70;0.70;;;;;;;10.13;100.00;97380.13;4985495;28;20425;-60
2021/11/04 10:59:10;;;;;;;0.60;0.60;;;;;;;10.25;100.00;97375.41;4985414;28;20507;-57
2021/11/04 11:01:42;;;;;;;0.60;0.60;;;;;;;10.58;97.57;97398.06;4991567;28;20076;-57
2021/11/04 11:04:10;;;;;;;0.43;0.43;;;;;;;10.76;93.32;97402.47;4990562;28;20246;-57
2021/11/04 11:06:43;;;;;;;0.70;0.70;;;;;;;10.94;91.04;97401.75;4983797;28;20027;-58
2021/11/04 11:09:12;;;;;;;0.50;0.50;;;;;;;10.99;89.70;97421.16;4984848;28;20104;-56
2021/11/04 11:11:40;;;;;;;0.50;0.50;;;;;;;11.16;89.11;97406.84;4988956;28;20045;-58
2021/11/04 11:14:06;;;;;;;0.60;0.60;;;;;;;11.25;88.71;97424.41;4988383;28;20091;-57
2021/11/04 11:16:34;;;;;;;0.50;0.50;;;;;;;11.17;85.27;97424.72;4981625;28;20038;-57